Terminal Aerodrome Forecast
Issued by NWS Binghamton, NY

Home | Current Version | Previous Version | Text Only | Print | Product List | Glossary On
Versions: 1 2 3 4 5 6 7 8 9 10 11 12 13 14 15 16 17 18 19 20 21 22 23 24 25
000
FTUS41 KBGM 161100 RRA
TAFBGM
TAF
KBGM 161154Z 1612/1712 22004KT P6SM SCT003 OVC025
      TEMPO 1612/1613 -SHRA BKN003
     FM161400 32009KT P6SM BKN050
     FM162300 32007KT P6SM SCT050
     FM170100 29003KT P6SM SCT040
     FM170600 VRB03KT 5SM BR SKC
     FM170900 VRB03KT 1/2SM FG VV001=

USA.gov is the U.S. government's official web portal to all federal, state and local government web resources and services.